CYPR

Prince Rupert Airport

Prince Rupert, , Canada
METAR CYPR 181400Z AUTO 08004KT 9SM -RA OVC042 04/03 A2948 RMK SLP985
Observed Flight Rules
Jan-18 @ 14:00 UTC (28 minutes ago) Visual Flight Rules
Wind Visibility Clouds Conditions
80° at 4 knots 9 miles
  • Overcast at 4,200' AGL
  • Light Rain
Temperatures Readings
Current 4°C / 39°F
Dewpoint 3°C / 37°F
Humidity 93%
Altimeter 29.48" Hg
Pressure 998.5 hPa
Elevation 34
METAR CYPR 181400Z AUTO 08004KT 9SM -RA OVC042 04/03 A2948 RMK SLP985
Observed Flight Rules
Jan-18 @ 14:00 UTC
(28 minutes ago)
VFR
Wind Visibility
80° at 4 knots 9 miles
Clouds
  • Overcast at 4,200' AGL
Conditions
  • Light Rain
Temperature Dewpoint
4°C / 39°F 3°C / 37°F
Humidity Altimeter Pressure
93% 29.48" Hg 998.5 hPa